sensor_id;sensor_type;location;lat;lon;timestamp;P1;durP1;ratioP1;P2;durP2;ratioP2
20159;SDS011;50187;50.492;12.134;2023-06-14T00:02:21;33.53;;;29.37;;
20159;SDS011;50187;50.492;12.134;2023-06-14T00:04:48;33.00;;;29.40;;
20159;SDS011;50187;50.492;12.134;2023-06-14T00:07:17;34.67;;;29.03;;
20159;SDS011;50187;50.492;12.134;2023-06-14T00:09:45;33.30;;;27.93;;
20159;SDS011;50187;50.492;12.134;2023-06-14T00:12:11;30.93;;;27.13;;
20159;SDS011;50187;50.492;12.134;2023-06-14T00:14:38;32.33;;;27.57;;
20159;SDS011;50187;50.492;12.134;2023-06-14T00:17:05;29.07;;;25.97;;
20159;SDS011;50187;50.492;12.134;2023-06-14T00:19:33;30.90;;;27.30;;
20159;SDS011;50187;50.492;12.134;2023-06-14T00:22:02;31.50;;;26.20;;
20159;SDS011;50187;50.492;12.134;2023-06-14T00:24:29;28.70;;;25.70;;
20159;SDS011;50187;50.492;12.134;2023-06-14T00:26:56;28.20;;;25.20;;
20159;SDS011;50187;50.492;12.134;2023-06-14T00:29:23;28.83;;;24.70;;
20159;SDS011;50187;50.492;12.134;2023-06-14T00:31:49;26.77;;;23.20;;
20159;SDS011;50187;50.492;12.134;2023-06-14T00:34:17;27.53;;;24.63;;
20159;SDS011;50187;50.492;12.134;2023-06-14T00:36:44;25.27;;;22.57;;
20159;SDS011;50187;50.492;12.134;2023-06-14T00:39:13;25.53;;;22.90;;
20159;SDS011;50187;50.492;12.134;2023-06-14T00:41:39;25.17;;;22.33;;
20159;SDS011;50187;50.492;12.134;2023-06-14T00:44:06;24.37;;;21.80;;
20159;SDS011;50187;50.492;12.134;2023-06-14T00:46:33;25.03;;;21.67;;
20159;SDS011;50187;50.492;12.134;2023-06-14T00:49:00;24.43;;;21.93;;
20159;SDS011;50187;50.492;12.134;2023-06-14T00:51:27;23.27;;;20.83;;
20159;SDS011;50187;50.492;12.134;2023-06-14T00:53:54;24.53;;;21.63;;
20159;SDS011;50187;50.492;12.134;2023-06-14T00:56:21;23.40;;;20.70;;
20159;SDS011;50187;50.492;12.134;2023-06-14T00:58:50;22.67;;;20.27;;
20159;SDS011;50187;50.492;12.134;2023-06-14T01:01:17;20.50;;;18.40;;
20159;SDS011;50187;50.492;12.134;2023-06-14T01:03:44;21.97;;;19.67;;
20159;SDS011;50187;50.492;12.134;2023-06-14T01:06:19;21.07;;;18.57;;
20159;SDS011;50187;50.492;12.134;2023-06-14T01:09:07;21.13;;;18.73;;
20159;SDS011;50187;50.492;12.134;2023-06-14T01:11:46;20.43;;;18.33;;
20159;SDS011;50187;50.492;12.134;2023-06-14T01:14:17;22.70;;;18.57;;
20159;SDS011;50187;50.492;12.134;2023-06-14T01:16:44;19.57;;;17.13;;
20159;SDS011;50187;50.492;12.134;2023-06-14T01:19:13;19.43;;;17.40;;
20159;SDS011;50187;50.492;12.134;2023-06-14T01:21:42;20.30;;;16.87;;
20159;SDS011;50187;50.492;12.134;2023-06-14T01:24:09;19.07;;;17.07;;
20159;SDS011;50187;50.492;12.134;2023-06-14T01:26:37;18.83;;;16.83;;
20159;SDS011;50187;50.492;12.134;2023-06-14T01:29:13;18.47;;;16.47;;
20159;SDS011;50187;50.492;12.134;2023-06-14T01:31:44;18.80;;;16.80;;
20159;SDS011;50187;50.492;12.134;2023-06-14T01:34:11;18.93;;;16.47;;
20159;SDS011;50187;50.492;12.134;2023-06-14T01:36:39;17.03;;;15.17;;
20159;SDS011;50187;50.492;12.134;2023-06-14T01:39:07;16.97;;;15.27;;
20159;SDS011;50187;50.492;12.134;2023-06-14T01:41:34;16.73;;;15.13;;
20159;SDS011;50187;50.492;12.134;2023-06-14T01:44:01;17.97;;;16.17;;
20159;SDS011;50187;50.492;12.134;2023-06-14T01:46:32;16.43;;;14.87;;
20159;SDS011;50187;50.492;12.134;2023-06-14T01:48:59;15.93;;;14.33;;
20159;SDS011;50187;50.492;12.134;2023-06-14T01:51:25;16.27;;;14.67;;
20159;SDS011;50187;50.492;12.134;2023-06-14T01:53:52;15.43;;;13.93;;
20159;SDS011;50187;50.492;12.134;2023-06-14T01:56:19;15.93;;;14.30;;
20159;SDS011;50187;50.492;12.134;2023-06-14T01:58:47;14.63;;;13.13;;
20159;SDS011;50187;50.492;12.134;2023-06-14T02:01:14;15.17;;;13.57;;
20159;SDS011;50187;50.492;12.134;2023-06-14T02:03:44;15.33;;;13.77;;
20159;SDS011;50187;50.492;12.134;2023-06-14T02:06:14;13.67;;;12.27;;
20159;SDS011;50187;50.492;12.134;2023-06-14T02:08:42;15.57;;;13.83;;
20159;SDS011;50187;50.492;12.134;2023-06-14T02:11:09;13.80;;;12.40;;
20159;SDS011;50187;50.492;12.134;2023-06-14T02:13:35;14.03;;;12.60;;
20159;SDS011;50187;50.492;12.134;2023-06-14T02:16:02;12.83;;;11.63;;
20159;SDS011;50187;50.492;12.134;2023-06-14T02:18:28;13.30;;;11.90;;
20159;SDS011;50187;50.492;12.134;2023-06-14T02:20:56;13.50;;;12.20;;
20159;SDS011;50187;50.492;12.134;2023-06-14T02:23:22;12.53;;;11.33;;
20159;SDS011;50187;50.492;12.134;2023-06-14T02:25:50;13.70;;;12.40;;
20159;SDS011;50187;50.492;12.134;2023-06-14T02:28:17;13.03;;;11.73;;
20159;SDS011;50187;50.492;12.134;2023-06-14T02:30:43;13.17;;;11.87;;
20159;SDS011;50187;50.492;12.134;2023-06-14T02:33:10;11.77;;;10.57;;
20159;SDS011;50187;50.492;12.134;2023-06-14T02:35:39;12.43;;;11.23;;
20159;SDS011;50187;50.492;12.134;2023-06-14T02:38:07;12.73;;;11.37;;
20159;SDS011;50187;50.492;12.134;2023-06-14T02:40:33;11.73;;;10.53;;
20159;SDS011;50187;50.492;12.134;2023-06-14T02:43:00;10.67;;;9.67;;
20159;SDS011;50187;50.492;12.134;2023-06-14T02:45:28;11.63;;;9.77;;
20159;SDS011;50187;50.492;12.134;2023-06-14T02:47:55;11.83;;;10.73;;
20159;SDS011;50187;50.492;12.134;2023-06-14T02:50:22;10.73;;;9.73;;
20159;SDS011;50187;50.492;12.134;2023-06-14T02:52:50;12.00;;;10.80;;
20159;SDS011;50187;50.492;12.134;2023-06-14T02:55:16;11.07;;;10.07;;
20159;SDS011;50187;50.492;12.134;2023-06-14T02:57:43;10.63;;;9.63;;
20159;SDS011;50187;50.492;12.134;2023-06-14T03:00:10;10.17;;;9.23;;
20159;SDS011;50187;50.492;12.134;2023-06-14T03:02:42;9.80;;;8.90;;
20159;SDS011;50187;50.492;12.134;2023-06-14T03:05:10;11.57;;;9.27;;
20159;SDS011;50187;50.492;12.134;2023-06-14T03:07:36;9.53;;;8.73;;
20159;SDS011;50187;50.492;12.134;2023-06-14T03:10:08;10.10;;;9.20;;
20159;SDS011;50187;50.492;12.134;2023-06-14T03:12:37;9.10;;;8.20;;
20159;SDS011;50187;50.492;12.134;2023-06-14T03:15:04;9.60;;;8.63;;
20159;SDS011;50187;50.492;12.134;2023-06-14T03:17:36;9.07;;;8.00;;
20159;SDS011;50187;50.492;12.134;2023-06-14T03:20:07;8.27;;;7.53;;
20159;SDS011;50187;50.492;12.134;2023-06-14T03:22:34;9.53;;;8.63;;
20159;SDS011;50187;50.492;12.134;2023-06-14T03:25:01;8.77;;;7.97;;
20159;SDS011;50187;50.492;12.134;2023-06-14T03:27:33;8.80;;;8.00;;
20159;SDS011;50187;50.492;12.134;2023-06-14T03:30:00;8.50;;;7.80;;
20159;SDS011;50187;50.492;12.134;2023-06-14T03:32:29;8.47;;;7.57;;
20159;SDS011;50187;50.492;12.134;2023-06-14T03:34:59;7.90;;;7.20;;
20159;SDS011;50187;50.492;12.134;2023-06-14T03:37:26;8.23;;;7.43;;
20159;SDS011;50187;50.492;12.134;2023-06-14T03:39:53;8.27;;;7.47;;
20159;SDS011;50187;50.492;12.134;2023-06-14T03:42:22;7.57;;;6.87;;
20159;SDS011;50187;50.492;12.134;2023-06-14T03:44:49;8.50;;;7.80;;
20159;SDS011;50187;50.492;12.134;2023-06-14T03:47:18;8.47;;;7.67;;
20159;SDS011;50187;50.492;12.134;2023-06-14T03:49:46;8.37;;;7.50;;
20159;SDS011;50187;50.492;12.134;2023-06-14T03:52:13;7.53;;;6.83;;
20159;SDS011;50187;50.492;12.134;2023-06-14T03:54:43;7.67;;;7.07;;
20159;SDS011;50187;50.492;12.134;2023-06-14T03:57:15;7.10;;;6.50;;
20159;SDS011;50187;50.492;12.134;2023-06-14T03:59:43;7.53;;;6.83;;
20159;SDS011;50187;50.492;12.134;2023-06-14T04:02:10;7.47;;;6.80;;
20159;SDS011;50187;50.492;12.134;2023-06-14T04:04:38;6.53;;;5.90;;
20159;SDS011;50187;50.492;12.134;2023-06-14T04:07:05;7.50;;;6.90;;
20159;SDS011;50187;50.492;12.134;2023-06-14T04:09:31;7.80;;;7.00;;
20159;SDS011;50187;50.492;12.134;2023-06-14T04:11:58;7.50;;;6.80;;
20159;SDS011;50187;50.492;12.134;2023-06-14T04:14:25;7.30;;;6.70;;
20159;SDS011;50187;50.492;12.134;2023-06-14T04:16:52;7.60;;;6.57;;
20159;SDS011;50187;50.492;12.134;2023-06-14T04:19:19;6.43;;;5.83;;
20159;SDS011;50187;50.492;12.134;2023-06-14T04:21:46;6.47;;;5.87;;
20159;SDS011;50187;50.492;12.134;2023-06-14T04:24:14;6.50;;;5.90;;
20159;SDS011;50187;50.492;12.134;2023-06-14T04:26:44;6.77;;;6.17;;
20159;SDS011;50187;50.492;12.134;2023-06-14T04:29:13;6.40;;;5.90;;
20159;SDS011;50187;50.492;12.134;2023-06-14T04:31:46;6.80;;;6.10;;
20159;SDS011;50187;50.492;12.134;2023-06-14T04:34:13;6.13;;;5.53;;
20159;SDS011;50187;50.492;12.134;2023-06-14T04:36:46;5.90;;;5.30;;
20159;SDS011;50187;50.492;12.134;2023-06-14T04:39:20;5.77;;;5.27;;
20159;SDS011;50187;50.492;12.134;2023-06-14T04:41:48;6.63;;;5.43;;
20159;SDS011;50187;50.492;12.134;2023-06-14T04:44:19;6.30;;;5.67;;
20159;SDS011;50187;50.492;12.134;2023-06-14T04:46:52;6.00;;;5.50;;
20159;SDS011;50187;50.492;12.134;2023-06-14T04:49:21;5.43;;;4.93;;
20159;SDS011;50187;50.492;12.134;2023-06-14T04:51:49;6.03;;;5.53;;
20159;SDS011;50187;50.492;12.134;2023-06-14T04:54:25;5.90;;;5.40;;
20159;SDS011;50187;50.492;12.134;2023-06-14T04:56:52;5.13;;;4.70;;
20159;SDS011;50187;50.492;12.134;2023-06-14T04:59:24;4.63;;;4.23;;
20159;SDS011;50187;50.492;12.134;2023-06-14T05:01:51;5.10;;;4.70;;
20159;SDS011;50187;50.492;12.134;2023-06-14T05:04:19;5.53;;;5.03;;
20159;SDS011;50187;50.492;12.134;2023-06-14T05:06:46;5.40;;;5.00;;
20159;SDS011;50187;50.492;12.134;2023-06-14T05:09:15;5.03;;;4.63;;
20159;SDS011;50187;50.492;12.134;2023-06-14T05:11:43;4.87;;;4.47;;
20159;SDS011;50187;50.492;12.134;2023-06-14T05:14:11;5.27;;;4.87;;
20159;SDS011;50187;50.492;12.134;2023-06-14T05:16:38;5.13;;;4.67;;
20159;SDS011;50187;50.492;12.134;2023-06-14T05:19:05;5.03;;;4.63;;
20159;SDS011;50187;50.492;12.134;2023-06-14T05:21:32;4.80;;;4.40;;
20159;SDS011;50187;50.492;12.134;2023-06-14T05:24:07;4.93;;;4.53;;
20159;SDS011;50187;50.492;12.134;2023-06-14T05:26:35;5.20;;;4.70;;
20159;SDS011;50187;50.492;12.134;2023-06-14T05:29:02;5.30;;;4.90;;
20159;SDS011;50187;50.492;12.134;2023-06-14T05:31:29;5.50;;;5.00;;
20159;SDS011;50187;50.492;12.134;2023-06-14T05:33:56;4.50;;;4.10;;
20159;SDS011;50187;50.492;12.134;2023-06-14T05:36:22;4.60;;;4.30;;
20159;SDS011;50187;50.492;12.134;2023-06-14T05:38:49;4.00;;;3.73;;
20159;SDS011;50187;50.492;12.134;2023-06-14T05:41:17;4.70;;;4.30;;
20159;SDS011;50187;50.492;12.134;2023-06-14T05:43:43;4.50;;;4.10;;
20159;SDS011;50187;50.492;12.134;2023-06-14T05:46:10;4.70;;;4.30;;
20159;SDS011;50187;50.492;12.134;2023-06-14T05:48:36;4.13;;;3.83;;
20159;SDS011;50187;50.492;12.134;2023-06-14T05:51:03;6.10;;;4.13;;
20159;SDS011;50187;50.492;12.134;2023-06-14T05:53:30;4.20;;;3.90;;
20159;SDS011;50187;50.492;12.134;2023-06-14T05:55:57;3.87;;;3.57;;
20159;SDS011;50187;50.492;12.134;2023-06-14T05:58:23;3.97;;;3.67;;
20159;SDS011;50187;50.492;12.134;2023-06-14T06:00:50;5.00;;;4.30;;
20159;SDS011;50187;50.492;12.134;2023-06-14T06:03:17;3.93;;;3.63;;
20159;SDS011;50187;50.492;12.134;2023-06-14T06:05:43;4.13;;;3.83;;
20159;SDS011;50187;50.492;12.134;2023-06-14T06:08:10;3.80;;;3.50;;
20159;SDS011;50187;50.492;12.134;2023-06-14T06:10:36;3.93;;;3.63;;
20159;SDS011;50187;50.492;12.134;2023-06-14T06:13:03;3.77;;;3.50;;
20159;SDS011;50187;50.492;12.134;2023-06-14T06:15:30;3.90;;;3.60;;
20159;SDS011;50187;50.492;12.134;2023-06-14T06:17:56;4.10;;;3.70;;
20159;SDS011;50187;50.492;12.134;2023-06-14T06:20:23;3.60;;;3.30;;
20159;SDS011;50187;50.492;12.134;2023-06-14T06:22:55;3.73;;;3.07;;
20159;SDS011;50187;50.492;12.134;2023-06-14T06:25:22;4.20;;;3.90;;
20159;SDS011;50187;50.492;12.134;2023-06-14T06:27:49;3.17;;;2.97;;
20159;SDS011;50187;50.492;12.134;2023-06-14T06:30:16;3.40;;;3.20;;
20159;SDS011;50187;50.492;12.134;2023-06-14T06:32:43;4.27;;;3.93;;
20159;SDS011;50187;50.492;12.134;2023-06-14T06:35:10;3.80;;;3.27;;
20159;SDS011;50187;50.492;12.134;2023-06-14T06:37:38;4.73;;;3.63;;
20159;SDS011;50187;50.492;12.134;2023-06-14T06:40:05;4.00;;;3.60;;
20159;SDS011;50187;50.492;12.134;2023-06-14T06:42:33;3.53;;;3.30;;
20159;SDS011;50187;50.492;12.134;2023-06-14T06:45:03;4.53;;;3.40;;
20159;SDS011;50187;50.492;12.134;2023-06-14T06:47:30;3.50;;;3.20;;
20159;SDS011;50187;50.492;12.134;2023-06-14T06:49:57;3.87;;;3.17;;
20159;SDS011;50187;50.492;12.134;2023-06-14T06:52:24;3.40;;;3.20;;
20159;SDS011;50187;50.492;12.134;2023-06-14T06:54:50;3.43;;;3.13;;
20159;SDS011;50187;50.492;12.134;2023-06-14T06:57:21;3.43;;;3.13;;
20159;SDS011;50187;50.492;12.134;2023-06-14T06:59:52;3.93;;;3.40;;
20159;SDS011;50187;50.492;12.134;2023-06-14T07:02:18;4.10;;;3.10;;
20159;SDS011;50187;50.492;12.134;2023-06-14T07:04:45;4.27;;;3.47;;
20159;SDS011;50187;50.492;12.134;2023-06-14T07:07:11;3.47;;;3.23;;
20159;SDS011;50187;50.492;12.134;2023-06-14T07:09:38;3.67;;;3.33;;
20159;SDS011;50187;50.492;12.134;2023-06-14T07:12:05;5.13;;;3.67;;
20159;SDS011;50187;50.492;12.134;2023-06-14T07:14:33;3.47;;;3.17;;
20159;SDS011;50187;50.492;12.134;2023-06-14T07:16:59;3.60;;;3.37;;
20159;SDS011;50187;50.492;12.134;2023-06-14T07:19:26;3.27;;;2.97;;
20159;SDS011;50187;50.492;12.134;2023-06-14T07:21:53;3.20;;;2.97;;
20159;SDS011;50187;50.492;12.134;2023-06-14T07:24:20;3.60;;;3.27;;
20159;SDS011;50187;50.492;12.134;2023-06-14T07:26:47;3.47;;;3.20;;
20159;SDS011;50187;50.492;12.134;2023-06-14T07:29:15;4.00;;;3.60;;
20159;SDS011;50187;50.492;12.134;2023-06-14T07:31:42;5.43;;;3.53;;
20159;SDS011;50187;50.492;12.134;2023-06-14T07:34:09;3.23;;;3.03;;
20159;SDS011;50187;50.492;12.134;2023-06-14T07:36:36;3.60;;;3.17;;
20159;SDS011;50187;50.492;12.134;2023-06-14T07:39:03;3.53;;;3.23;;
20159;SDS011;50187;50.492;12.134;2023-06-14T07:41:32;3.03;;;2.73;;
20159;SDS011;50187;50.492;12.134;2023-06-14T07:43:59;4.53;;;3.00;;
20159;SDS011;50187;50.492;12.134;2023-06-14T07:46:26;3.10;;;2.90;;
20159;SDS011;50187;50.492;12.134;2023-06-14T07:48:53;3.20;;;3.00;;
20159;SDS011;50187;50.492;12.134;2023-06-14T07:51:19;3.07;;;2.87;;
20159;SDS011;50187;50.492;12.134;2023-06-14T07:53:48;2.97;;;2.77;;
20159;SDS011;50187;50.492;12.134;2023-06-14T07:56:15;3.20;;;3.00;;
20159;SDS011;50187;50.492;12.134;2023-06-14T07:58:41;3.27;;;3.07;;
20159;SDS011;50187;50.492;12.134;2023-06-14T08:01:08;3.43;;;3.17;;
20159;SDS011;50187;50.492;12.134;2023-06-14T08:03:35;3.47;;;3.10;;
20159;SDS011;50187;50.492;12.134;2023-06-14T08:06:02;3.33;;;3.13;;
20159;SDS011;50187;50.492;12.134;2023-06-14T08:08:30;3.53;;;3.20;;
20159;SDS011;50187;50.492;12.134;2023-06-14T08:10:57;3.60;;;3.30;;
20159;SDS011;50187;50.492;12.134;2023-06-14T08:13:23;3.20;;;3.00;;
20159;SDS011;50187;50.492;12.134;2023-06-14T08:15:50;3.27;;;3.03;;
20159;SDS011;50187;50.492;12.134;2023-06-14T08:18:17;3.53;;;3.07;;
20159;SDS011;50187;50.492;12.134;2023-06-14T08:20:44;3.47;;;3.27;;
20159;SDS011;50187;50.492;12.134;2023-06-14T08:23:11;3.13;;;2.83;;
20159;SDS011;50187;50.492;12.134;2023-06-14T08:25:37;3.00;;;2.80;;
20159;SDS011;50187;50.492;12.134;2023-06-14T08:28:04;3.10;;;2.80;;
20159;SDS011;50187;50.492;12.134;2023-06-14T08:30:31;4.20;;;2.97;;
20159;SDS011;50187;50.492;12.134;2023-06-14T08:32:57;3.00;;;2.80;;
20159;SDS011;50187;50.492;12.134;2023-06-14T08:35:40;3.33;;;2.90;;
20159;SDS011;50187;50.492;12.134;2023-06-14T08:38:07;2.93;;;2.73;;
20159;SDS011;50187;50.492;12.134;2023-06-14T08:40:34;3.27;;;2.87;;
20159;SDS011;50187;50.492;12.134;2023-06-14T08:43:03;4.37;;;3.20;;
20159;SDS011;50187;50.492;12.134;2023-06-14T08:45:29;3.20;;;2.90;;
20159;SDS011;50187;50.492;12.134;2023-06-14T08:47:58;3.37;;;3.10;;
20159;SDS011;50187;50.492;12.134;2023-06-14T08:50:27;3.93;;;3.17;;
20159;SDS011;50187;50.492;12.134;2023-06-14T08:53:00;2.93;;;2.73;;
20159;SDS011;50187;50.492;12.134;2023-06-14T08:55:30;2.73;;;2.53;;
20159;SDS011;50187;50.492;12.134;2023-06-14T08:58:01;2.90;;;2.70;;
20159;SDS011;50187;50.492;12.134;2023-06-14T09:00:30;3.43;;;3.17;;
20159;SDS011;50187;50.492;12.134;2023-06-14T09:02:57;3.50;;;3.20;;
20159;SDS011;50187;50.492;12.134;2023-06-14T09:05:25;3.20;;;3.00;;
20159;SDS011;50187;50.492;12.134;2023-06-14T09:07:53;3.00;;;2.63;;
20159;SDS011;50187;50.492;12.134;2023-06-14T09:10:23;3.30;;;3.00;;
20159;SDS011;50187;50.492;12.134;2023-06-14T09:12:53;2.80;;;2.60;;
20159;SDS011;50187;50.492;12.134;2023-06-14T09:15:20;2.83;;;2.63;;
20159;SDS011;50187;50.492;12.134;2023-06-14T09:17:47;3.30;;;2.93;;
20159;SDS011;50187;50.492;12.134;2023-06-14T09:20:14;3.20;;;2.53;;
20159;SDS011;50187;50.492;12.134;2023-06-14T09:22:45;3.27;;;3.00;;
20159;SDS011;50187;50.492;12.134;2023-06-14T09:25:12;3.07;;;2.70;;
20159;SDS011;50187;50.492;12.134;2023-06-14T09:27:58;3.00;;;2.80;;
20159;SDS011;50187;50.492;12.134;2023-06-14T09:30:25;2.60;;;2.50;;
20159;SDS011;50187;50.492;12.134;2023-06-14T09:32:52;3.57;;;3.27;;
20159;SDS011;50187;50.492;12.134;2023-06-14T09:35:20;3.00;;;2.80;;
20159;SDS011;50187;50.492;12.134;2023-06-14T09:37:46;2.97;;;2.77;;
20159;SDS011;50187;50.492;12.134;2023-06-14T09:40:13;3.63;;;2.30;;
20159;SDS011;50187;50.492;12.134;2023-06-14T09:42:46;3.40;;;3.10;;
20159;SDS011;50187;50.492;12.134;2023-06-14T09:45:13;2.60;;;2.40;;
20159;SDS011;50187;50.492;12.134;2023-06-14T09:47:46;3.27;;;3.00;;
20159;SDS011;50187;50.492;12.134;2023-06-14T09:50:31;2.73;;;2.50;;
20159;SDS011;50187;50.492;12.134;2023-06-14T09:52:59;2.57;;;2.47;;
20159;SDS011;50187;50.492;12.134;2023-06-14T09:55:32;3.37;;;2.60;;
20159;SDS011;50187;50.492;12.134;2023-06-14T09:58:04;3.37;;;3.07;;
20159;SDS011;50187;50.492;12.134;2023-06-14T10:00:34;3.77;;;2.53;;
20159;SDS011;50187;50.492;12.134;2023-06-14T10:03:03;3.33;;;3.10;;
20159;SDS011;50187;50.492;12.134;2023-06-14T10:05:48;2.80;;;2.60;;
20159;SDS011;50187;50.492;12.134;2023-06-14T10:08:18;2.80;;;2.60;;
20159;SDS011;50187;50.492;12.134;2023-06-14T10:10:51;2.90;;;2.70;;
20159;SDS011;50187;50.492;12.134;2023-06-14T10:13:17;2.93;;;2.73;;
20159;SDS011;50187;50.492;12.134;2023-06-14T10:15:48;2.50;;;2.40;;
20159;SDS011;50187;50.492;12.134;2023-06-14T10:18:28;2.97;;;2.77;;
20159;SDS011;50187;50.492;12.134;2023-06-14T10:21:18;3.23;;;2.47;;
20159;SDS011;50187;50.492;12.134;2023-06-14T10:23:55;3.03;;;2.73;;
20159;SDS011;50187;50.492;12.134;2023-06-14T10:26:26;3.23;;;3.03;;
20159;SDS011;50187;50.492;12.134;2023-06-14T10:29:00;2.80;;;2.60;;
20159;SDS011;50187;50.492;12.134;2023-06-14T10:31:40;2.70;;;2.57;;
20159;SDS011;50187;50.492;12.134;2023-06-14T10:34:06;2.90;;;2.70;;
20159;SDS011;50187;50.492;12.134;2023-06-14T10:36:33;3.00;;;2.80;;
20159;SDS011;50187;50.492;12.134;2023-06-14T10:39:04;2.77;;;2.40;;
20159;SDS011;50187;50.492;12.134;2023-06-14T10:41:36;3.10;;;2.80;;
20159;SDS011;50187;50.492;12.134;2023-06-14T10:46:47;2.63;;;2.43;;
20159;SDS011;50187;50.492;12.134;2023-06-14T10:49:19;2.90;;;2.70;;
20159;SDS011;50187;50.492;12.134;2023-06-14T10:51:50;2.80;;;2.60;;
20159;SDS011;50187;50.492;12.134;2023-06-14T10:54:21;2.70;;;2.50;;
20159;SDS011;50187;50.492;12.134;2023-06-14T10:56:51;2.17;;;2.07;;
20159;SDS011;50187;50.492;12.134;2023-06-14T10:59:19;3.30;;;2.80;;
20159;SDS011;50187;50.492;12.134;2023-06-14T11:04:31;2.83;;;2.63;;
20159;SDS011;50187;50.492;12.134;2023-06-14T11:10:02;2.70;;;2.50;;
20159;SDS011;50187;50.492;12.134;2023-06-14T11:12:33;2.80;;;2.60;;
20159;SDS011;50187;50.492;12.134;2023-06-14T11:15:02;2.53;;;2.43;;
20159;SDS011;50187;50.492;12.134;2023-06-14T11:17:29;2.60;;;2.50;;
20159;SDS011;50187;50.492;12.134;2023-06-14T11:20:09;2.53;;;2.33;;
20159;SDS011;50187;50.492;12.134;2023-06-14T11:22:40;4.77;;;2.63;;
20159;SDS011;50187;50.492;12.134;2023-06-14T11:25:08;2.67;;;2.47;;
20159;SDS011;50187;50.492;12.134;2023-06-14T11:27:36;3.87;;;2.60;;
20159;SDS011;50187;50.492;12.134;2023-06-14T11:30:02;2.77;;;2.57;;
20159;SDS011;50187;50.492;12.134;2023-06-14T11:32:31;3.43;;;2.30;;
20159;SDS011;50187;50.492;12.134;2023-06-14T11:34:58;2.60;;;2.40;;
20159;SDS011;50187;50.492;12.134;2023-06-14T11:37:28;3.00;;;2.80;;
20159;SDS011;50187;50.492;12.134;2023-06-14T11:40:02;2.20;;;2.10;;
20159;SDS011;50187;50.492;12.134;2023-06-14T11:42:36;2.43;;;2.33;;
20159;SDS011;50187;50.492;12.134;2023-06-14T11:45:03;2.23;;;2.13;;
20159;SDS011;50187;50.492;12.134;2023-06-14T11:47:41;2.80;;;2.60;;
20159;SDS011;50187;50.492;12.134;2023-06-14T11:50:09;2.77;;;2.57;;
20159;SDS011;50187;50.492;12.134;2023-06-14T11:52:36;2.50;;;2.40;;
20159;SDS011;50187;50.492;12.134;2023-06-14T11:55:03;2.47;;;2.37;;
20159;SDS011;50187;50.492;12.134;2023-06-14T11:57:34;2.70;;;2.50;;
20159;SDS011;50187;50.492;12.134;2023-06-14T12:00:03;2.20;;;2.10;;
20159;SDS011;50187;50.492;12.134;2023-06-14T12:02:36;2.70;;;2.53;;
20159;SDS011;50187;50.492;12.134;2023-06-14T12:05:04;2.50;;;2.30;;
20159;SDS011;50187;50.492;12.134;2023-06-14T12:07:36;2.27;;;2.17;;
20159;SDS011;50187;50.492;12.134;2023-06-14T12:10:04;2.77;;;2.57;;
20159;SDS011;50187;50.492;12.134;2023-06-14T12:12:35;2.30;;;2.20;;
20159;SDS011;50187;50.492;12.134;2023-06-14T12:15:04;2.47;;;2.37;;
20159;SDS011;50187;50.492;12.134;2023-06-14T12:17:33;2.60;;;2.40;;
20159;SDS011;50187;50.492;12.134;2023-06-14T12:20:11;2.23;;;2.13;;
20159;SDS011;50187;50.492;12.134;2023-06-14T12:22:53;2.60;;;2.50;;
20159;SDS011;50187;50.492;12.134;2023-06-14T12:25:23;3.53;;;3.03;;
20159;SDS011;50187;50.492;12.134;2023-06-14T12:27:54;2.43;;;2.30;;
20159;SDS011;50187;50.492;12.134;2023-06-14T12:30:21;3.50;;;2.23;;
20159;SDS011;50187;50.492;12.134;2023-06-14T12:32:48;2.53;;;2.33;;
20159;SDS011;50187;50.492;12.134;2023-06-14T12:35:15;3.77;;;2.60;;
20159;SDS011;50187;50.492;12.134;2023-06-14T12:37:42;2.40;;;2.30;;
20159;SDS011;50187;50.492;12.134;2023-06-14T12:40:09;4.87;;;2.63;;
20159;SDS011;50187;50.492;12.134;2023-06-14T12:42:37;3.97;;;2.87;;
20159;SDS011;50187;50.492;12.134;2023-06-14T12:45:04;2.53;;;2.10;;
20159;SDS011;50187;50.492;12.134;2023-06-14T12:47:31;4.80;;;3.10;;
20159;SDS011;50187;50.492;12.134;2023-06-14T12:49:58;3.60;;;2.80;;
20159;SDS011;50187;50.492;12.134;2023-06-14T12:52:24;5.33;;;2.93;;
20159;SDS011;50187;50.492;12.134;2023-06-14T12:54:51;7.47;;;2.40;;
20159;SDS011;50187;50.492;12.134;2023-06-14T12:57:18;2.70;;;2.40;;
20159;SDS011;50187;50.492;12.134;2023-06-14T12:59:44;2.93;;;2.73;;
20159;SDS011;50187;50.492;12.134;2023-06-14T13:04:43;2.73;;;2.50;;
20159;SDS011;50187;50.492;12.134;2023-06-14T13:07:09;4.13;;;2.70;;
20159;SDS011;50187;50.492;12.134;2023-06-14T13:09:41;2.73;;;2.53;;
20159;SDS011;50187;50.492;12.134;2023-06-14T13:12:09;3.00;;;2.60;;
20159;SDS011;50187;50.492;12.134;2023-06-14T13:14:38;3.00;;;2.70;;
20159;SDS011;50187;50.492;12.134;2023-06-14T13:17:09;2.50;;;2.30;;
20159;SDS011;50187;50.492;12.134;2023-06-14T13:19:36;2.77;;;2.57;;
20159;SDS011;50187;50.492;12.134;2023-06-14T13:22:03;3.07;;;2.73;;
20159;SDS011;50187;50.492;12.134;2023-06-14T13:24:31;2.83;;;2.50;;
20159;SDS011;50187;50.492;12.134;2023-06-14T13:26:58;2.77;;;2.57;;
20159;SDS011;50187;50.492;12.134;2023-06-14T13:29:24;3.53;;;2.60;;
20159;SDS011;50187;50.492;12.134;2023-06-14T13:31:51;2.70;;;2.50;;
20159;SDS011;50187;50.492;12.134;2023-06-14T13:34:19;2.70;;;2.50;;
20159;SDS011;50187;50.492;12.134;2023-06-14T13:36:45;2.97;;;2.77;;
20159;SDS011;50187;50.492;12.134;2023-06-14T13:39:12;5.47;;;2.60;;
20159;SDS011;50187;50.492;12.134;2023-06-14T13:41:39;2.70;;;2.60;;
20159;SDS011;50187;50.492;12.134;2023-06-14T13:44:05;3.40;;;2.97;;
20159;SDS011;50187;50.492;12.134;2023-06-14T13:46:32;2.83;;;2.63;;
20159;SDS011;50187;50.492;12.134;2023-06-14T13:48:59;2.93;;;2.80;;
20159;SDS011;50187;50.492;12.134;2023-06-14T13:51:27;3.33;;;2.90;;
20159;SDS011;50187;50.492;12.134;2023-06-14T13:53:54;3.10;;;2.80;;
20159;SDS011;50187;50.492;12.134;2023-06-14T13:56:21;3.37;;;3.07;;
20159;SDS011;50187;50.492;12.134;2023-06-14T13:58:51;2.90;;;2.70;;
20159;SDS011;50187;50.492;12.134;2023-06-14T14:01:18;2.80;;;2.60;;
20159;SDS011;50187;50.492;12.134;2023-06-14T14:03:46;3.00;;;2.53;;
20159;SDS011;50187;50.492;12.134;2023-06-14T14:06:14;4.53;;;2.60;;
20159;SDS011;50187;50.492;12.134;2023-06-14T14:08:40;2.93;;;2.70;;
20159;SDS011;50187;50.492;12.134;2023-06-14T14:11:08;3.17;;;2.87;;
20159;SDS011;50187;50.492;12.134;2023-06-14T14:13:35;3.73;;;2.73;;
20159;SDS011;50187;50.492;12.134;2023-06-14T14:16:05;3.27;;;2.97;;
20159;SDS011;50187;50.492;12.134;2023-06-14T14:18:32;3.03;;;2.83;;
20159;SDS011;50187;50.492;12.134;2023-06-14T14:20:59;2.70;;;2.50;;
20159;SDS011;50187;50.492;12.134;2023-06-14T14:23:27;2.53;;;2.43;;
20159;SDS011;50187;50.492;12.134;2023-06-14T14:25:53;2.93;;;2.70;;
20159;SDS011;50187;50.492;12.134;2023-06-14T14:28:20;4.33;;;3.10;;
20159;SDS011;50187;50.492;12.134;2023-06-14T14:30:47;5.87;;;2.70;;
20159;SDS011;50187;50.492;12.134;2023-06-14T14:33:14;4.33;;;3.30;;
20159;SDS011;50187;50.492;12.134;2023-06-14T14:35:43;3.93;;;3.30;;
20159;SDS011;50187;50.492;12.134;2023-06-14T14:38:14;3.20;;;2.90;;
20159;SDS011;50187;50.492;12.134;2023-06-14T14:40:44;3.87;;;3.03;;
20159;SDS011;50187;50.492;12.134;2023-06-14T14:43:11;4.93;;;2.90;;
20159;SDS011;50187;50.492;12.134;2023-06-14T14:45:37;3.83;;;2.93;;
20159;SDS011;50187;50.492;12.134;2023-06-14T14:48:04;3.20;;;2.90;;